Helena, MT

4:50 AM MDT on September 04, 2015 (GMT -0600)
Helena 2-North | | Change Station
CLOSE
Current Station
Personal Weather Station
Location: Helena, MT
Elevation: 3825 ft
Nearby Weather Stations

Elev 3825 ft 46.62 °N, 112.04 °W | Updated 8 minutes ago

Overcast
Overcast
48.3 °F
Feels Like 48 °F
N
3.0
Wind Variable Wind from WSW
Gusts 6.0 mph

Today
High -- | Low -- °F
--% Chance of Precip.
Yesterday
High -- | Low -- °F
Precip. -- in
6:51 AM 8:01 PM
Waning Gibbous, 60% visible
Pressure 29.94 in
Visibility 10.0 miles
Clouds Scattered Clouds 7500 ft
Overcast 10000 ft
Windchill 48 °F
Dew Point 46 °F
Humidity 93%
Rainfall 0.20 in
Snow Depth Not available.
UV 0 out of 12
Pollen 7.40 out of 12
Air Quality Not available.
Flu Activity Not available.
METAR KHLN 040953Z AUTO 29006KT 10SM SCT075 OVC100 09/08 A2993 RMK AO2 RAE00 SLP138 P0000 T00940083
Pressure 29.94 in
Visibility 10.0 miles
Clouds Scattered Clouds 7500 ft
Overcast 10000 ft
Windchill 48 °F
Dew Point 46 °F
Humidity 93%
Rainfall 0.20 in
Snow Depth Not available.
UV 0 out of 12
Pollen 7.40 out of 12
Air Quality Not available.
Flu Activity Not available.
METAR KHLN 040953Z AUTO 29006KT 10SM SCT075 OVC100 09/08 A2993 RMK AO2 RAE00 SLP138 P0000 T00940083

10-Day Weather Forecast

×

Almanac

Astronomy

Sep. 04, 2015 Rise Set
Actual Time
Civil Twilight
Nautical Twilight
Astronomical Twilight
Moon
Length of Visible Light
Length of Day
Tomorrow will be .
, % of the Moon is Illuminated

Today's Extremes

State Highs State Lows

Community

WunderPhotos

Upload Photos

1,852,146 photos uploaded!

WunderBlogs® & News

Nearby

Air Quality

  Air Quality AQ Index Pollutant
Not available.

Snow Depth

Station Depth Elevation

Earthquake Activity

City Distance Mag. Time & Date
Minimum magnitude displayed is 2.5.

Coastal Water Temperatures

Place Temperature

Stations

Nearby Weather Stations

Station Location Temp. Windchill Dew Point Humidity Wind Precip. Elev Updated Type